Time;durP1;ratioP1;P1;durP2;ratioP2;P2;SDS_P1;SDS_P2;PMS_P1;PMS_P2;Temp;Humidity;BMP_temperature;BMP_pressure;BME280_temperature;BME280_humidity;BME280_pressure;Samples;Min_cycle;Max_cycle;Signal;HPM_P1;HPM_P2
2021/04/10 00:04:16;;;;;;;5.05;2.80;;;;;;;7.19;53.84;101190.88;5235362;23;20042;-83
2021/04/10 05:34:18;;;;;;;11.02;5.53;;;;;;;11.18;45.18;101095.59;4979973;23;20059;-84
2021/04/10 05:54:49;;;;;;;8.63;5.07;;;;;;;17.35;33.56;101146.16;4941606;29;20051;-75
2021/04/10 05:57:14;;;;;;;5.43;3.45;;;;;;;17.15;32.18;101154.00;4938794;29;20036;-75
2021/04/10 05:59:40;;;;;;;4.85;3.35;;;;;;;18.15;32.23;101143.66;4921894;29;20069;-76
2021/04/10 06:02:06;;;;;;;11.07;4.78;;;;;;;17.41;31.85;101152.22;4920211;29;20459;-76
2021/04/10 06:04:36;;;;;;;5.85;2.45;;;;;;;15.79;35.24;101162.44;4920356;29;20028;-76
2021/04/10 06:07:02;;;;;;;8.75;3.60;;;;;;;15.80;35.87;101157.63;4920738;29;20506;-76
2021/04/10 06:09:28;;;;;;;7.90;3.38;;;;;;;16.56;33.49;101151.97;4936865;29;20028;-76
2021/04/10 06:11:53;;;;;;;4.32;3.35;;;;;;;16.09;33.60;101156.13;4920073;29;20067;-77
2021/04/10 06:14:22;;;;;;;6.28;3.70;;;;;;;14.78;36.80;101155.25;4937324;29;20059;-77
2021/04/10 06:16:49;;;;;;;2.45;2.25;;;;;;;14.34;37.51;101152.69;4937090;29;20372;-77
2021/04/10 06:19:16;;;;;;;4.05;3.20;;;;;;;14.00;39.13;101143.06;4937630;29;20034;-77
2021/04/10 06:21:44;;;;;;;6.35;2.95;;;;;;;13.59;39.99;101143.28;4920678;29;20470;-77
2021/04/10 06:24:12;;;;;;;6.45;4.03;;;;;;;12.38;41.95;101128.66;4925867;29;20066;-78
2021/04/10 06:26:38;;;;;;;7.53;3.20;;;;;;;12.26;42.41;101151.00;4945721;29;20059;-78
2021/04/10 06:29:04;;;;;;;3.55;2.88;;;;;;;12.05;43.31;101146.38;4927135;29;20038;-78
2021/04/10 06:31:30;;;;;;;3.47;2.83;;;;;;;12.06;42.91;101148.00;4926933;29;20479;-78
2021/04/10 06:33:57;;;;;;;4.18;3.28;;;;;;;11.71;43.99;101138.41;4920252;29;20030;-77
2021/04/10 06:36:26;;;;;;;3.15;2.50;;;;;;;11.79;44.44;101143.88;4936771;29;20035;-78
2021/04/10 06:38:55;;;;;;;3.08;2.47;;;;;;;12.15;44.20;101141.47;4920290;29;20098;-77
2021/04/10 06:41:22;;;;;;;2.90;2.47;;;;;;;12.55;43.73;101159.06;4936793;29;20039;-77
2021/04/10 06:43:48;;;;;;;2.75;2.55;;;;;;;12.89;43.80;101156.06;4919985;29;20371;-77
2021/04/10 06:46:17;;;;;;;2.22;2.03;;;;;;;12.95;42.72;101161.06;4920027;29;20379;-77
2021/04/10 06:48:44;;;;;;;2.30;2.10;;;;;;;14.12;41.03;101168.16;4920201;29;20372;-77
2021/04/10 06:51:14;;;;;;;2.80;2.33;;;;;;;15.20;39.79;101170.16;4920161;29;20024;-77
2021/04/10 06:53:45;;;;;;;2.78;2.58;;;;;;;16.68;35.32;101165.81;4919278;29;20052;-77
2021/04/10 06:56:12;;;;;;;3.30;3.00;;;;;;;17.38;35.69;101164.28;4919492;29;20043;-77
2021/04/10 06:59:05;;;;;;;4.75;3.50;;;;;;;18.18;33.22;101167.44;4919506;29;20028;-77
2021/04/10 07:01:33;;;;;;;4.72;3.28;;;;;;;19.02;32.32;101172.00;4921196;29;20110;-77
2021/04/10 07:03:58;;;;;;;3.90;3.25;;;;;;;19.23;31.01;101168.44;4925750;29;20028;-77
2021/04/10 07:06:24;;;;;;;5.72;2.28;;;;;;;18.43;33.09;101170.41;4924965;29;20040;-77
2021/04/10 07:08:49;;;;;;;2.78;2.45;;;;;;;18.80;31.23;101168.25;4925671;29;20127;-77
2021/04/10 07:11:15;;;;;;;3.05;2.40;;;;;;;18.42;32.15;101168.81;4925927;29;20061;-77
2021/04/10 07:13:43;;;;;;;4.72;2.65;;;;;;;18.95;30.85;101173.94;4925591;29;20098;-77
2021/04/10 07:16:11;;;;;;;4.53;3.03;;;;;;;18.02;31.57;101181.81;4925916;29;20067;-77
2021/04/10 07:18:37;;;;;;;3.08;2.22;;;;;;;18.15;32.41;101171.84;4944086;29;20103;-81
2021/04/10 07:21:26;;;;;;;3.42;2.63;;;;;;;18.64;31.18;101166.91;4926781;29;20073;-83
2021/04/10 07:23:57;;;;;;;2.85;2.15;;;;;;;17.69;32.45;101171.44;4934744;29;20038;-81
2021/04/10 07:26:54;;;;;;;4.85;2.63;;;;;;;17.01;33.43;101170.69;4950023;29;20026;-81
2021/04/10 07:29:43;;;;;;;2.00;1.80;;;;;;;18.26;30.96;101160.66;4943011;29;20048;-80
2021/04/10 07:32:27;;;;;;;3.70;2.80;;;;;;;18.31;30.29;101161.09;4936930;29;20064;-81
2021/04/10 07:34:54;;;;;;;2.30;2.10;;;;;;;18.65;29.93;101162.91;4943941;29;20060;-83
2021/04/10 07:37:45;;;;;;;3.55;2.05;;;;;;;17.77;30.58;101159.84;4957532;29;20032;-81
2021/04/10 07:40:17;;;;;;;4.57;2.13;;;;;;;17.95;30.48;101159.19;4946307;29;20071;-80
2021/04/10 07:42:44;;;;;;;2.25;1.70;;;;;;;17.70;29.93;101117.56;4947606;29;20012;-81
2021/04/10 07:45:33;;;;;;;3.92;2.22;;;;;;;18.27;28.75;101165.91;4945390;29;20043;-81
2021/04/10 07:48:04;;;;;;;3.45;2.30;;;;;;;18.99;28.64;101161.47;4957845;29;20032;-81
2021/04/10 07:50:33;;;;;;;4.35;2.55;;;;;;;19.69;27.09;101158.47;4926362;29;20031;-83
2021/04/10 07:53:19;;;;;;;3.33;2.05;;;;;;;20.17;26.94;101153.22;4925356;29;20047;-81
2021/04/10 07:55:45;;;;;;;5.35;3.20;;;;;;;19.21;26.87;101162.38;4925384;29;20058;-81
2021/04/10 07:58:30;;;;;;;5.47;2.60;;;;;;;18.79;27.41;101175.09;4955722;29;20043;-81
2021/04/10 08:01:08;;;;;;;5.32;2.80;;;;;;;19.00;27.84;101168.72;4945750;29;20032;-80
2021/04/10 08:03:41;;;;;;;4.45;2.63;;;;;;;20.03;26.47;101181.50;4944549;29;20041;-81
2021/04/10 08:06:34;;;;;;;5.22;2.40;;;;;;;20.24;25.99;101186.28;4926585;29;20550;-81
2021/04/10 08:09:00;;;;;;;4.50;3.10;;;;;;;19.66;26.67;101177.03;4926546;29;20035;-83
2021/04/10 08:11:34;;;;;;;3.15;2.65;;;;;;;18.35;28.50;101180.03;4926309;29;20031;-81
2021/04/10 08:14:05;;;;;;;4.10;2.63;;;;;;;18.61;28.25;101191.06;4926607;29;20035;-80
2021/04/10 08:16:33;;;;;;;3.05;2.60;;;;;;;18.16;28.66;101153.72;4929499;29;20020;-81
2021/04/10 08:19:01;;;;;;;2.95;2.63;;;;;;;18.42;28.39;101177.25;4956492;29;20031;-81
2021/04/10 08:21:32;;;;;;;2.67;2.47;;;;;;;19.37;28.12;101182.56;4940317;29;20046;-81
2021/04/10 08:24:02;;;;;;;4.18;3.22;;;;;;;20.47;25.82;101174.59;4937236;29;20040;-83
2021/04/10 08:26:28;;;;;;;3.00;2.65;;;;;;;21.11;25.41;101172.38;4939940;29;20032;-85
2021/04/10 08:28:56;;;;;;;2.83;2.60;;;;;;;21.80;24.61;101172.81;4938714;29;20079;-84
2021/04/10 08:31:22;;;;;;;4.93;2.78;;;;;;;22.06;23.86;101165.72;4922069;29;20036;-85
2021/04/10 08:33:48;;;;;;;3.65;2.63;;;;;;;22.01;23.37;101166.16;4921888;29;20039;-83
2021/04/10 08:36:14;;;;;;;2.60;2.40;;;;;;;21.83;23.56;101167.09;4921479;29;20157;-84
2021/04/10 08:38:42;;;;;;;2.75;2.55;;;;;;;20.52;24.95;101177.03;4921688;29;20038;-85
2021/04/10 08:41:10;;;;;;;2.75;2.45;;;;;;;21.33;24.93;101175.94;4921575;29;20028;-84
2021/04/10 08:43:46;;;;;;;2.70;2.50;;;;;;;21.89;24.09;101154.13;4921803;29;20427;-84
2021/04/10 08:46:17;;;;;;;5.70;3.08;;;;;;;22.22;23.71;101168.84;4921816;29;20039;-84
2021/04/10 08:48:48;;;;;;;2.88;2.60;;;;;;;23.16;22.79;101186.44;4921540;29;20028;-85
2021/04/10 08:51:16;;;;;;;5.13;3.08;;;;;;;23.31;21.37;101170.81;4921440;29;20038;-84
2021/04/10 08:53:46;;;;;;;4.88;3.17;;;;;;;22.47;22.44;101166.53;4920896;29;20055;-84
2021/04/10 08:56:18;;;;;;;3.35;3.08;;;;;;;22.29;22.52;101163.09;4921415;29;20027;-84
2021/04/10 08:58:46;;;;;;;2.97;2.55;;;;;;;21.31;23.50;101169.88;4918178;29;20055;-84
2021/04/10 09:01:23;;;;;;;15.52;2.72;;;;;;;21.49;23.47;101172.59;4918644;29;20032;-84
2021/04/10 09:03:54;;;;;;;2.67;2.47;;;;;;;20.75;24.19;101168.88;4917718;29;20079;-84
2021/04/10 09:06:22;;;;;;;4.50;2.65;;;;;;;20.42;23.85;101164.50;4936128;29;20035;-84
2021/04/10 09:08:48;;;;;;;4.32;3.92;;;;;;;21.42;23.03;101156.47;4921651;29;20382;-84
2021/04/10 09:11:22;;;;;;;4.68;3.28;;;;;;;22.07;22.33;101144.66;4920995;29;20031;-84
2021/04/10 09:13:52;;;;;;;2.60;2.40;;;;;;;22.46;22.09;101147.13;4921036;29;20027;-83
2021/04/10 09:16:25;;;;;;;4.25;1.88;;;;;;;21.66;21.48;101140.50;4938041;29;20030;-84
2021/04/10 09:18:51;;;;;;;3.70;2.00;;;;;;;22.32;20.47;101150.91;4938317;29;20036;-81
2021/04/10 09:21:17;;;;;;;3.58;1.80;;;;;;;21.47;20.42;101146.75;4921814;29;20431;-84
2021/04/10 09:23:48;;;;;;;3.55;1.80;;;;;;;20.65;21.13;101141.44;4921011;29;20035;-81
2021/04/10 09:26:17;;;;;;;3.20;1.45;;;;;;;20.33;21.71;101153.59;4923054;29;20083;-84
2021/04/10 09:28:55;;;;;;;2.08;1.50;;;;;;;20.81;21.85;101144.59;4956501;29;20075;-83
2021/04/10 09:31:45;;;;;;;1.98;1.35;;;;;;;20.75;20.15;101154.72;4938564;29;20027;-82
2021/04/10 09:34:47;;;;;;;1.92;1.17;;;;;;;20.79;19.50;101152.69;4942914;29;20071;-83
2021/04/10 09:37:25;;;;;;;1.23;1.13;;;;;;;21.26;18.55;101139.16;4925577;29;20407;-84
2021/04/10 09:39:56;;;;;;;1.13;1.02;;;;;;;21.86;16.29;101169.09;4922190;29;20161;-84
2021/04/10 09:42:55;;;;;;;1.63;1.10;;;;;;;22.98;14.82;101153.41;4921099;29;20032;-84
2021/04/10 09:45:23;;;;;;;0.75;0.75;;;;;;;23.84;13.58;101157.88;4936856;29;20040;-84
2021/04/10 09:47:54;;;;;;;0.82;0.70;;;;;;;24.12;13.84;101150.91;4920263;29;20034;-84
2021/04/10 09:50:24;;;;;;;2.95;1.42;;;;;;;23.62;16.47;101145.22;4920264;29;20042;-84
2021/04/10 09:53:04;;;;;;;1.98;1.00;;;;;;;22.38;16.88;101132.22;4920339;29;20059;-84
2021/04/10 09:55:32;;;;;;;1.08;0.98;;;;;;;22.34;18.14;101156.16;4920829;29;20444;-85
2021/04/10 09:58:11;;;;;;;1.25;1.15;;;;;;;22.66;18.70;101158.66;4920805;29;20126;-84
2021/04/10 10:00:38;;;;;;;1.70;1.27;;;;;;;23.37;18.16;101152.06;4920065;29;20111;-85
2021/04/10 10:03:05;;;;;;;1.15;0.93;;;;;;;21.62;20.58;101150.25;4921339;29;20036;-84
2021/04/10 10:05:42;;;;;;;1.27;0.95;;;;;;;22.64;19.79;101161.13;4936936;29;20034;-85
2021/04/10 10:08:16;;;;;;;1.20;1.10;;;;;;;22.10;20.39;101161.63;4937267;29;20039;-84
2021/04/10 10:10:46;;;;;;;1.25;1.15;;;;;;;22.32;21.79;101167.09;4920059;29;20082;-84
2021/04/10 10:13:16;;;;;;;3.15;1.50;;;;;;;23.19;20.29;101157.22;4937239;29;20031;-82
2021/04/10 10:15:43;;;;;;;2.50;1.00;;;;;;;23.05;19.16;101163.88;4919742;29;20106;-81
2021/04/10 10:18:17;;;;;;;1.92;1.20;;;;;;;23.12;20.01;101160.16;4937770;29;20464;-82
2021/04/10 10:21:00;;;;;;;1.00;1.00;;;;;;;21.81;22.45;101161.03;4920166;29;20024;-76
2021/04/10 10:23:40;;;;;;;0.98;0.98;;;;;;;21.18;21.66;101163.03;4919979;29;20039;-83
2021/04/10 10:26:19;;;;;;;3.00;0.95;;;;;;;21.77;22.96;101153.78;4936935;29;20038;-80
2021/04/10 10:28:47;;;;;;;1.58;1.17;;;;;;;21.91;22.86;101148.81;4936764;29;20047;-83
2021/04/10 10:31:16;;;;;;;1.27;1.17;;;;;;;21.28;23.29;101150.84;4919956;29;20031;-77
2021/04/10 10:33:43;;;;;;;1.52;1.40;;;;;;;21.39;24.12;101140.31;4920157;29;20031;-78
2021/04/10 10:36:10;;;;;;;2.25;1.58;;;;;;;21.03;23.55;101133.19;4936367;29;20068;-80
2021/04/10 10:38:41;;;;;;;0.90;0.82;;;;;;;21.16;23.67;101134.34;4919938;29;20094;-79
2021/04/10 10:41:09;;;;;;;2.25;1.10;;;;;;;21.19;24.87;101122.19;4920075;29;20031;-77
2021/04/10 10:43:36;;;;;;;1.42;1.23;;;;;;;21.27;25.16;101126.59;4919405;29;20032;-84
2021/04/10 10:46:04;;;;;;;4.63;1.40;;;;;;;20.55;25.12;101117.63;4919719;29;20023;-77
2021/04/10 10:48:31;;;;;;;3.13;1.20;;;;;;;21.39;24.59;101117.66;4920291;29;20031;-77
2021/04/10 10:51:04;;;;;;;4.53;1.48;;;;;;;20.85;25.16;101117.13;4937202;29;20059;-80
2021/04/10 10:53:37;;;;;;;;;;;;;;;21.16;25.16;101104.03;4920034;29;20054;-77
2021/04/10 10:56:06;;;;;;;8.77;2.72;;;;;;;20.12;25.65;101103.56;4919403;29;19921;-77
2021/04/10 10:58:40;;;;;;;2.85;1.42;;;;;;;21.03;24.58;101087.94;4919349;29;20028;-82
2021/04/10 11:01:19;;;;;;;1.77;1.50;;;;;;;21.49;24.63;101098.19;4919503;29;20120;-84
2021/04/10 11:03:59;;;;;;;2.42;1.52;;;;;;;21.29;25.21;101095.84;4936877;29;20051;-83
2021/04/10 11:06:31;;;;;;;1.60;1.50;;;;;;;20.96;25.88;101096.47;4919460;29;20479;-83
2021/04/10 11:09:02;;;;;;;1.80;1.40;;;;;;;21.81;25.13;101090.22;4919488;29;20063;-83
2021/04/10 11:11:33;;;;;;;1.98;1.35;;;;;;;21.43;25.81;101090.13;4919726;29;20035;-84
2021/04/10 11:13:59;;;;;;;2.50;1.10;;;;;;;20.94;27.74;101082.75;4919842;29;20036;-83
2021/04/10 11:16:25;;;;;;;2.00;1.48;;;;;;;20.88;26.95;101079.53;4936279;29;20079;-83
2021/04/10 11:18:58;;;;;;;2.13;1.40;;;;;;;21.06;26.09;101070.13;4919472;29;20036;-82
2021/04/10 11:21:26;;;;;;;;;;;;;;;21.71;25.02;101076.97;4936958;29;20083;-81
2021/04/10 11:24:18;;;;;;;4.85;1.20;;;;;;;21.77;25.49;101057.50;4919475;29;19918;-82
2021/04/10 11:26:55;;;;;;;1.58;1.48;;;;;;;21.10;25.57;101070.94;4936150;29;20035;-81
2021/04/10 11:29:28;;;;;;;3.88;1.90;;;;;;;19.99;27.44;101047.94;4919337;29;20051;-83
2021/04/10 11:32:03;;;;;;;;;;;;;;;20.95;26.64;101064.53;4919672;29;20027;-82
2021/04/10 11:34:32;;;;;;;3.05;2.47;;;;;;;21.43;25.03;101061.81;4919112;29;19914;-80
2021/04/10 11:36:59;;;;;;;2.55;1.70;;;;;;;21.40;24.92;101051.31;4919437;29;20032;-81
2021/04/10 11:39:25;;;;;;;2.60;1.90;;;;;;;21.38;25.86;101058.63;4937416;29;20038;-81
2021/04/10 11:41:51;;;;;;;1.77;1.30;;;;;;;21.37;25.50;101046.50;4922383;29;20028;-79
2021/04/10 11:44:18;;;;;;;3.33;3.03;;;;;;;21.68;24.89;101049.50;4918921;29;20064;-80
2021/04/10 11:46:44;;;;;;;3.30;1.85;;;;;;;21.42;24.60;101050.94;4919044;29;20502;-80
2021/04/10 11:49:23;;;;;;;2.60;1.85;;;;;;;20.45;26.15;101046.97;4939451;29;20035;-81
2021/04/10 11:51:49;;;;;;;1.65;1.55;;;;;;;20.30;26.09;101047.03;4922740;29;20034;-81
2021/04/10 11:54:37;;;;;;;1.95;1.55;;;;;;;20.25;25.77;101047.47;4938890;29;20411;-82
2021/04/10 11:57:03;;;;;;;2.28;1.60;;;;;;;20.63;25.00;101044.91;4922559;29;20039;-82
2021/04/10 11:59:36;;;;;;;2.05;1.65;;;;;;;20.74;25.08;101023.03;4922351;29;20058;-80
2021/04/10 12:02:05;;;;;;;2.33;1.67;;;;;;;19.87;26.63;101029.41;4922223;29;20114;-80
2021/04/10 12:04:37;;;;;;;5.93;1.85;;;;;;;19.76;27.50;101025.75;4922197;29;20031;-79
2021/04/10 12:07:13;;;;;;;1.60;1.50;;;;;;;20.44;27.12;101028.41;4922234;29;20471;-81
2021/04/10 12:09:40;;;;;;;1.67;1.35;;;;;;;20.25;28.26;101032.53;4914600;29;20115;-81
2021/04/10 12:12:10;;;;;;;1.55;1.33;;;;;;;19.50;30.03;101033.44;4922300;29;20032;-79
2021/04/10 12:14:38;;;;;;;1.60;1.50;;;;;;;19.73;28.98;101007.63;4921816;29;20023;-79
2021/04/10 12:17:04;;;;;;;2.63;1.50;;;;;;;19.72;29.37;101017.31;4921413;29;20530;-82
2021/04/10 12:19:30;;;;;;;1.70;1.60;;;;;;;19.13;30.13;101010.44;4921854;29;20027;-79
2021/04/10 12:21:55;;;;;;;1.95;1.50;;;;;;;19.05;30.10;101018.06;4938988;29;20039;-79
2021/04/10 12:24:21;;;;;;;2.67;1.60;;;;;;;18.74;29.96;101003.50;4923454;29;20099;-79
2021/04/10 12:26:47;;;;;;;1.85;1.70;;;;;;;18.70;29.55;101011.16;4923339;29;20059;-80
2021/04/10 12:29:13;;;;;;;1.75;1.40;;;;;;;19.25;29.74;100998.75;4922818;29;20126;-81
2021/04/10 12:31:42;;;;;;;2.58;1.83;;;;;;;19.61;29.92;100996.75;4922935;29;20070;-79
2021/04/10 12:34:07;;;;;;;1.65;1.40;;;;;;;19.44;30.57;101006.00;4924038;29;20027;-78
2021/04/10 12:36:33;;;;;;;2.50;1.17;;;;;;;19.37;31.55;100990.69;4929791;29;20074;-77
2021/04/10 12:39:01;;;;;;;5.38;1.35;;;;;;;19.32;31.97;100990.28;4911803;29;20052;-77
2021/04/10 12:41:27;;;;;;;2.35;1.45;;;;;;;19.15;32.87;100989.06;4911993;29;20039;-78
2021/04/10 12:43:52;;;;;;;2.13;1.35;;;;;;;19.38;32.77;100985.84;4925244;29;20047;-77
2021/04/10 12:46:19;;;;;;;1.52;1.20;;;;;;;19.63;31.98;100991.50;4922072;29;20036;-76
2021/04/10 12:48:46;;;;;;;1.55;1.10;;;;;;;19.16;32.96;100989.88;4921991;29;20031;-76
2021/04/10 12:51:13;;;;;;;1.67;1.58;;;;;;;19.67;31.48;100968.91;4922226;29;20031;-77
2021/04/10 12:53:39;;;;;;;2.30;1.52;;;;;;;19.85;31.45;100978.16;4895488;29;20162;-76
2021/04/10 12:56:05;;;;;;;1.40;1.30;;;;;;;19.99;30.39;100985.78;4919514;29;20032;-77
2021/04/10 12:58:31;;;;;;;1.35;1.15;;;;;;;20.19;30.12;100983.28;4921305;29;20036;-76
2021/04/10 13:00:56;;;;;;;2.75;1.40;;;;;;;19.86;30.31;100974.91;4920757;29;20020;-77
2021/04/10 13:03:24;;;;;;;1.77;1.67;;;;;;;19.49;30.40;100980.19;4921381;29;20059;-76
2021/04/10 13:05:51;;;;;;;1.92;1.50;;;;;;;20.13;29.73;100980.06;4921640;29;20055;-77
2021/04/10 13:08:17;;;;;;;5.65;2.13;;;;;;;20.07;29.74;100971.22;4938518;29;20486;-77
2021/04/10 13:10:43;;;;;;;1.70;1.60;;;;;;;20.10;29.50;100973.22;4921550;29;20114;-80
2021/04/10 13:13:08;;;;;;;2.15;1.33;;;;;;;20.10;29.72;100963.97;4905903;29;20447;-81
2021/04/10 13:15:35;;;;;;;1.85;1.13;;;;;;;20.08;30.77;100972.00;4921429;29;20028;-80
2021/04/10 13:18:04;;;;;;;1.70;1.10;;;;;;;19.09;31.53;100962.47;4939018;29;20042;-79
2021/04/10 13:20:29;;;;;;;1.20;0.95;;;;;;;19.04;32.01;100965.69;4921359;29;20064;-79
2021/04/10 13:22:59;;;;;;;1.10;1.00;;;;;;;19.16;31.00;100961.66;4921370;29;20070;-79
2021/04/10 13:25:26;;;;;;;3.20;1.00;;;;;;;19.20;31.34;100956.84;4939973;29;20035;-77
2021/04/10 13:27:54;;;;;;;1.60;1.50;;;;;;;19.22;31.03;100955.22;4926940;29;20119;-81
2021/04/10 13:30:22;;;;;;;1.23;1.10;;;;;;;19.37;31.53;100950.38;4928489;29;20027;-81
2021/04/10 13:32:48;;;;;;;2.17;1.33;;;;;;;18.81;31.85;100940.72;4925405;29;20032;-78
2021/04/10 13:35:14;;;;;;;1.50;1.40;;;;;;;19.03;31.43;100942.34;4922788;29;20052;-79
2021/04/10 13:37:39;;;;;;;1.50;1.40;;;;;;;18.90;31.06;100932.66;4920864;29;20061;-80
2021/04/10 13:40:07;;;;;;;1.67;1.35;;;;;;;18.87;31.17;100930.66;4921505;29;20099;-77
2021/04/10 13:42:33;;;;;;;2.40;1.85;;;;;;;19.10;30.41;100911.31;4937977;29;20030;-78
2021/04/10 13:44:59;;;;;;;1.52;1.40;;;;;;;19.22;30.75;100921.34;4920309;29;20118;-78
2021/04/10 13:47:27;;;;;;;2.35;1.40;;;;;;;19.71;29.47;100902.78;4923318;29;20038;-81
2021/04/10 13:49:58;;;;;;;2.10;1.30;;;;;;;19.38;29.65;100907.63;4926385;29;20475;-84
2021/04/10 13:52:24;;;;;;;1.63;1.52;;;;;;;19.19;30.14;100893.97;4920746;29;20032;-85
2021/04/10 13:54:52;;;;;;;1.70;1.60;;;;;;;18.69;31.35;100893.97;4936488;29;20062;-80
2021/04/10 13:57:18;;;;;;;1.73;1.38;;;;;;;19.00;31.03;100909.28;4937225;29;20032;-80
2021/04/10 13:59:46;;;;;;;1.20;1.10;;;;;;;18.93;31.14;100883.13;4920601;29;20119;-79
2021/04/10 14:02:13;;;;;;;2.42;1.73;;;;;;;18.93;31.52;100900.03;4937373;29;20111;-79
2021/04/10 14:05:10;;;;;;;2.22;1.10;;;;;;;18.47;32.36;100900.75;4920847;29;20031;-79
2021/04/10 14:07:39;;;;;;;2.08;1.45;;;;;;;18.32;32.44;100897.09;4922007;29;20027;-79
2021/04/10 14:10:08;;;;;;;1.40;1.30;;;;;;;18.08;32.88;100878.91;4940692;29;20043;-79
2021/04/10 14:12:34;;;;;;;5.30;1.75;;;;;;;18.63;32.21;100898.34;4941000;29;20032;-79
2021/04/10 14:15:02;;;;;;;3.20;1.10;;;;;;;18.35;32.37;100898.31;4923815;29;20159;-79
2021/04/10 14:17:30;;;;;;;7.82;1.40;;;;;;;18.55;31.81;100905.19;4938367;29;20086;-79
2021/04/10 14:19:58;;;;;;;1.30;1.20;;;;;;;18.62;30.88;100901.59;4921698;29;20090;-79
2021/04/10 14:29:07;;;;;;;3.85;2.05;;;;;;;18.63;30.39;100887.09;4940222;29;20054;-80
2021/04/10 14:31:35;;;;;;;3.42;1.90;;;;;;;18.54;30.94;100878.25;4940098;29;20028;-80
2021/04/10 14:34:01;;;;;;;1.20;1.02;;;;;;;18.57;31.13;100877.41;4921086;29;20054;-80
2021/04/10 14:36:27;;;;;;;2.58;1.25;;;;;;;18.99;30.20;100884.31;4919938;29;20472;-80
2021/04/10 14:38:53;;;;;;;1.52;1.20;;;;;;;19.16;29.57;100866.56;4920015;29;20032;-80
2021/04/10 14:41:22;;;;;;;2.15;1.42;;;;;;;19.42;28.92;100867.31;4922506;29;20031;-80
2021/04/10 14:43:49;;;;;;;1.70;1.13;;;;;;;19.51;28.96;100876.19;4921701;29;20039;-80
2021/04/10 14:46:15;;;;;;;1.10;1.00;;;;;;;18.85;28.38;100879.47;4936628;29;20032;-80
2021/04/10 14:48:41;;;;;;;1.38;1.00;;;;;;;19.38;27.33;100839.91;4919594;29;20038;-81
2021/04/10 14:51:07;;;;;;;1.98;1.35;;;;;;;19.02;27.55;100844.84;4920067;29;20035;-81
2021/04/10 14:53:38;;;;;;;3.03;1.00;;;;;;;18.93;27.41;100835.19;4919596;29;20055;-80
2021/04/10 14:56:10;;;;;;;1.15;0.98;;;;;;;19.28;26.59;100852.06;4919565;29;20024;-81
2021/04/10 14:58:36;;;;;;;1.08;0.98;;;;;;;19.66;26.17;100848.75;4920002;29;20043;-80
2021/04/10 15:01:03;;;;;;;4.35;1.15;;;;;;;19.62;26.73;100855.22;4919227;29;20032;-82
2021/04/10 15:03:29;;;;;;;1.13;0.77;;;;;;;19.40;27.20;100853.63;4936455;29;20067;-82
2021/04/10 15:06:05;;;;;;;0.95;0.88;;;;;;;18.85;27.46;100828.72;4919352;29;20024;-82
2021/04/10 15:08:31;;;;;;;1.98;1.33;;;;;;;19.47;27.24;100853.59;4919289;29;20095;-82
2021/04/10 15:10:59;;;;;;;2.95;1.40;;;;;;;19.37;26.95;100854.44;4919243;29;20027;-82
2021/04/10 15:13:25;;;;;;;1.38;1.10;;;;;;;19.54;26.79;100849.94;4919190;29;20042;-81
2021/04/10 15:15:58;;;;;;;1.48;1.38;;;;;;;19.16;27.42;100862.94;4936063;29;20390;-81
2021/04/10 15:18:26;;;;;;;2.13;0.80;;;;;;;18.79;27.85;100859.34;4936964;29;20032;-80
2021/04/10 15:20:53;;;;;;;1.55;0.93;;;;;;;18.45;27.99;100861.72;4919187;29;20032;-80
2021/04/10 15:23:19;;;;;;;1.20;0.90;;;;;;;18.78;27.53;100852.09;4938108;29;20028;-80
2021/04/10 15:25:45;;;;;;;1.38;1.20;;;;;;;18.80;27.61;100831.94;4923614;29;20095;-81
2021/04/10 15:28:10;;;;;;;1.67;0.98;;;;;;;18.54;27.56;100838.78;4923765;29;20435;-80
2021/04/10 15:30:36;;;;;;;3.88;1.10;;;;;;;18.30;27.62;100840.34;4923556;29;20045;-79
2021/04/10 15:33:02;;;;;;;1.67;1.00;;;;;;;18.04;28.85;100847.13;4923616;29;20382;-80
2021/04/10 15:35:27;;;;;;;2.45;0.82;;;;;;;18.04;28.37;100852.75;4924419;29;20047;-81
2021/04/10 15:37:53;;;;;;;1.92;1.05;;;;;;;18.18;28.28;100857.63;4927950;29;20502;-80
2021/04/10 15:40:19;;;;;;;1.08;0.93;;;;;;;18.13;28.25;100844.75;4931207;29;20032;-80
2021/04/10 15:42:44;;;;;;;1.10;1.00;;;;;;;17.65;28.94;100842.13;4931880;29;20024;-79
2021/04/10 15:45:10;;;;;;;4.28;2.33;;;;;;;17.98;28.11;100848.72;4929578;29;20208;-79
2021/04/10 15:47:36;;;;;;;3.28;2.67;;;;;;;17.98;28.48;100841.06;4925953;29;20126;-80
2021/04/10 15:50:03;;;;;;;2.50;2.22;;;;;;;17.44;29.14;100820.34;4928648;29;20111;-80
2021/04/10 15:52:29;;;;;;;9.13;2.90;;;;;;;17.60;29.34;100852.97;4927437;29;20036;-81
2021/04/10 15:54:54;;;;;;;3.67;1.67;;;;;;;17.53;29.28;100846.09;4930699;29;20032;-80
2021/04/10 15:57:20;;;;;;;1.60;1.50;;;;;;;17.46;28.76;100856.50;4909604;29;20032;-80
2021/04/10 15:59:46;;;;;;;1.30;1.20;;;;;;;17.46;29.68;100857.31;4908606;29;20076;-79
2021/04/10 16:02:14;;;;;;;4.07;1.25;;;;;;;17.38;29.24;100849.22;4907804;29;20484;-79
2021/04/10 16:04:40;;;;;;;2.55;1.00;;;;;;;17.33;28.91;100844.78;4933528;29;20036;-79
2021/04/10 16:07:08;;;;;;;2.90;1.00;;;;;;;17.39;28.57;100848.03;4915778;29;20051;-80
2021/04/10 16:09:33;;;;;;;1.10;1.00;;;;;;;17.17;29.09;100853.53;4911054;29;20099;-79
2021/04/10 16:11:59;;;;;;;1.77;1.05;;;;;;;17.13;28.66;100840.63;4908935;29;20048;-79
2021/04/10 16:24:32;;;;;;;1.70;1.02;;;;;;;16.23;26.82;100853.09;5043805;28;1042701;-71
2021/04/10 16:26:58;;;;;;;3.58;1.27;;;;;;;16.26;26.42;100851.53;5067531;28;20040;-71
2021/04/10 16:29:27;;;;;;;3.88;0.98;;;;;;;16.31;25.47;100854.78;5069563;28;20040;-71
2021/04/10 16:31:53;;;;;;;1.50;1.30;;;;;;;16.35;24.60;100854.81;5069872;28;20455;-71
2021/04/10 16:34:18;;;;;;;1.45;1.10;;;;;;;16.22;24.38;100857.91;5064168;28;20032;-71
2021/04/10 16:36:44;;;;;;;3.08;1.23;;;;;;;16.11;24.23;100842.94;5049851;28;20389;-71
2021/04/10 16:39:09;;;;;;;2.03;1.50;;;;;;;16.13;24.32;100837.75;5049514;28;20124;-71
2021/04/10 16:41:35;;;;;;;1.27;1.10;;;;;;;16.03;24.18;100846.03;5068908;28;20044;-71
2021/04/10 16:44:01;;;;;;;1.45;1.23;;;;;;;16.15;24.73;100841.00;5069169;28;20539;-71
2021/04/10 16:46:30;;;;;;;4.75;1.20;;;;;;;16.12;25.09;100836.13;5068945;28;20024;-70
2021/04/10 16:48:58;;;;;;;4.45;1.70;;;;;;;16.08;24.10;100840.09;5069795;28;20059;-71
2021/04/10 16:51:27;;;;;;;3.65;1.33;;;;;;;15.82;24.37;100830.59;5067663;28;20032;-71
2021/04/10 16:53:56;;;;;;;1.52;1.20;;;;;;;15.82;24.84;100839.00;5068819;28;20111;-72
2021/04/10 16:56:40;;;;;;;1.75;1.17;;;;;;;15.76;24.76;100834.09;5070552;28;20078;-71
2021/04/10 16:59:08;;;;;;;0.88;0.88;;;;;;;15.68;25.35;100834.03;5069623;28;20036;-71
2021/04/10 17:01:39;;;;;;;5.00;1.70;;;;;;;15.56;26.12;100837.06;5069419;28;20028;-72
2021/04/10 17:04:10;;;;;;;3.00;1.95;;;;;;;15.50;26.81;100835.78;5068892;28;20487;-71
2021/04/10 17:06:38;;;;;;;6.13;2.25;;;;;;;15.45;27.03;100828.50;5069257;28;20047;-71
2021/04/10 17:09:06;;;;;;;2.15;1.63;;;;;;;15.41;27.39;100833.25;5069400;28;20048;-71
2021/04/10 17:11:35;;;;;;;9.85;3.00;;;;;;;15.33;27.27;100837.13;5068637;28;20029;-71
2021/04/10 17:14:02;;;;;;;4.07;2.70;;;;;;;15.23;28.10;100842.59;5063264;28;20131;-72
2021/04/10 17:16:30;;;;;;;5.97;3.42;;;;;;;14.86;31.45;100834.81;5049338;28;20086;-71
2021/04/10 17:19:03;;;;;;;5.45;2.95;;;;;;;14.78;36.35;100838.72;5049558;28;20195;-71
2021/04/10 17:21:32;;;;;;;3.03;2.30;;;;;;;14.47;41.39;100843.41;5048781;28;20025;-71
2021/04/10 17:24:06;;;;;;;44.28;25.08;;;;;;;14.39;42.84;100844.44;5048764;28;20080;-71
2021/04/10 17:26:34;;;;;;;41.13;25.58;;;;;;;14.22;44.20;100842.09;5048928;28;20501;-71
2021/04/10 17:29:23;;;;;;;26.83;16.60;;;;;;;14.10;46.04;100841.09;5048928;28;20122;-71
2021/04/10 17:32:04;;;;;;;29.90;20.67;;;;;;;13.99;47.38;100844.88;5040721;28;20407;-71
2021/04/10 17:34:35;;;;;;;29.33;17.05;;;;;;;13.95;47.69;100844.78;5036256;28;20033;-71
2021/04/10 17:37:02;;;;;;;14.23;9.98;;;;;;;13.84;48.84;100846.56;5035226;28;20022;-71
2021/04/10 17:39:35;;;;;;;13.20;8.73;;;;;;;13.84;48.54;100838.97;5035129;28;20044;-71
2021/04/10 17:42:03;;;;;;;9.05;5.90;;;;;;;13.71;49.45;100845.13;5036174;28;20030;-71